sensor_id;sensor_type;location;lat;lon;timestamp;pressure;altitude;pressure_sealevel;temperature;humidity
54666;BME280;40566;50.006;36.180;2023-01-30T00:02:34;99661.47;;;-3.79;65.94
54666;BME280;40566;50.006;36.180;2023-01-30T00:07:35;99659.44;;;-3.91;66.26
54666;BME280;40566;50.006;36.180;2023-01-30T00:12:36;99654.16;;;-3.99;66.41
54666;BME280;40566;50.006;36.180;2023-01-30T00:17:36;99651.53;;;-4.02;66.31
54666;BME280;40566;50.006;36.180;2023-01-30T00:22:37;99651.41;;;-4.06;66.11
54666;BME280;40566;50.006;36.180;2023-01-30T00:27:37;99649.50;;;-4.13;66.26
54666;BME280;40566;50.006;36.180;2023-01-30T00:32:38;99643.50;;;-4.17;65.98
54666;BME280;40566;50.006;36.180;2023-01-30T00:37:38;99659.38;;;-4.21;66.18
54666;BME280;40566;50.006;36.180;2023-01-30T00:42:39;99650.47;;;-4.37;66.59
54666;BME280;40566;50.006;36.180;2023-01-30T00:47:58;99636.22;;;-4.35;66.06
54666;BME280;40566;50.006;36.180;2023-01-30T00:52:59;99637.97;;;-4.34;66.08
54666;BME280;40566;50.006;36.180;2023-01-30T00:58:00;99639.59;;;-4.36;65.97
54666;BME280;40566;50.006;36.180;2023-01-30T01:03:00;99634.44;;;-4.39;65.76
54666;BME280;40566;50.006;36.180;2023-01-30T01:08:02;99622.56;;;-4.42;65.78
54666;BME280;40566;50.006;36.180;2023-01-30T01:13:03;99621.63;;;-4.45;65.70
54666;BME280;40566;50.006;36.180;2023-01-30T01:18:05;99621.56;;;-4.47;65.65
54666;BME280;40566;50.006;36.180;2023-01-30T01:23:09;99617.25;;;-4.51;65.38
54666;BME280;40566;50.006;36.180;2023-01-30T01:28:10;99619.72;;;-4.52;65.52
54666;BME280;40566;50.006;36.180;2023-01-30T01:33:10;99615.25;;;-4.61;65.77
54666;BME280;40566;50.006;36.180;2023-01-30T01:38:11;99601.72;;;-4.63;65.71
54666;BME280;40566;50.006;36.180;2023-01-30T01:43:20;99609.84;;;-4.73;65.87
54666;BME280;40566;50.006;36.180;2023-01-30T01:48:31;99607.84;;;-4.84;66.00
54666;BME280;40566;50.006;36.180;2023-01-30T01:53:35;99599.84;;;-4.96;66.18
54666;BME280;40566;50.006;36.180;2023-01-30T01:58:53;99621.44;;;-5.04;66.24
54666;BME280;40566;50.006;36.180;2023-01-30T02:03:58;99606.13;;;-5.10;66.19
54666;BME280;40566;50.006;36.180;2023-01-30T02:09:04;99605.28;;;-5.11;66.09
54666;BME280;40566;50.006;36.180;2023-01-30T02:14:07;99600.97;;;-5.13;65.95
54666;BME280;40566;50.006;36.180;2023-01-30T02:19:33;99604.81;;;-5.25;65.99
54666;BME280;40566;50.006;36.180;2023-01-30T02:40:35;99605.72;;;-5.23;65.65
54666;BME280;40566;50.006;36.180;2023-01-30T02:45:46;99607.78;;;-5.11;65.21
54666;BME280;40566;50.006;36.180;2023-01-30T02:50:57;99603.78;;;-5.04;65.09
54666;BME280;40566;50.006;36.180;2023-01-30T02:55:59;99608.31;;;-4.94;64.98
54666;BME280;40566;50.006;36.180;2023-01-30T03:01:35;99616.09;;;-4.88;64.87
54666;BME280;40566;50.006;36.180;2023-01-30T03:12:21;99599.63;;;-4.76;64.91
54666;BME280;40566;50.006;36.180;2023-01-30T03:17:26;99586.53;;;-4.65;64.55
54666;BME280;40566;50.006;36.180;2023-01-30T03:22:27;99584.38;;;-4.52;64.54
54666;BME280;40566;50.006;36.180;2023-01-30T03:27:29;99576.19;;;-4.45;64.51
54666;BME280;40566;50.006;36.180;2023-01-30T03:32:29;99581.34;;;-4.42;64.52
54666;BME280;40566;50.006;36.180;2023-01-30T03:37:30;99580.75;;;-4.33;64.47
54666;BME280;40566;50.006;36.180;2023-01-30T03:42:30;99579.88;;;-4.34;64.50
54666;BME280;40566;50.006;36.180;2023-01-30T03:47:31;99578.38;;;-4.27;64.67
54666;BME280;40566;50.006;36.180;2023-01-30T03:52:34;99583.00;;;-4.14;64.31
54666;BME280;40566;50.006;36.180;2023-01-30T03:57:35;99591.50;;;-4.10;64.35
54666;BME280;40566;50.006;36.180;2023-01-30T04:02:35;99593.59;;;-3.95;64.04
54666;BME280;40566;50.006;36.180;2023-01-30T04:07:37;99591.91;;;-3.95;64.42
54666;BME280;40566;50.006;36.180;2023-01-30T04:12:38;99593.00;;;-3.87;64.32
54666;BME280;40566;50.006;36.180;2023-01-30T04:17:39;99594.06;;;-3.79;64.16
54666;BME280;40566;50.006;36.180;2023-01-30T04:22:39;99595.88;;;-3.74;64.22
54666;BME280;40566;50.006;36.180;2023-01-30T04:27:40;99593.19;;;-3.81;64.59
54666;BME280;40566;50.006;36.180;2023-01-30T04:32:40;99584.38;;;-3.93;64.61
54666;BME280;40566;50.006;36.180;2023-01-30T04:37:41;99591.59;;;-3.77;64.59
54666;BME280;40566;50.006;36.180;2023-01-30T04:42:41;99578.28;;;-3.70;64.39
54666;BME280;40566;50.006;36.180;2023-01-30T04:47:42;99591.09;;;-3.64;64.32
54666;BME280;40566;50.006;36.180;2023-01-30T04:52:42;99584.34;;;-3.65;64.43
54666;BME280;40566;50.006;36.180;2023-01-30T04:57:43;99577.41;;;-3.72;64.68
54666;BME280;40566;50.006;36.180;2023-01-30T05:02:43;99592.88;;;-3.61;64.59
54666;BME280;40566;50.006;36.180;2023-01-30T05:07:44;99598.06;;;-3.55;64.35
54666;BME280;40566;50.006;36.180;2023-01-30T05:12:45;99598.66;;;-3.64;64.67
54666;BME280;40566;50.006;36.180;2023-01-30T05:17:45;99605.53;;;-3.60;64.45
54666;BME280;40566;50.006;36.180;2023-01-30T05:22:46;99596.84;;;-3.69;64.68
54666;BME280;40566;50.006;36.180;2023-01-30T05:27:46;99596.13;;;-3.65;64.67
54666;BME280;40566;50.006;36.180;2023-01-30T05:32:47;99594.19;;;-3.74;65.08
54666;BME280;40566;50.006;36.180;2023-01-30T05:37:51;99600.97;;;-3.73;65.02
54666;BME280;40566;50.006;36.180;2023-01-30T05:42:51;99601.88;;;-3.71;65.08
54666;BME280;40566;50.006;36.180;2023-01-30T05:47:52;99605.88;;;-3.78;65.10
54666;BME280;40566;50.006;36.180;2023-01-30T05:52:52;99591.56;;;-3.79;65.21
54666;BME280;40566;50.006;36.180;2023-01-30T05:57:53;99593.59;;;-3.65;64.93
54666;BME280;40566;50.006;36.180;2023-01-30T06:02:53;99603.19;;;-3.52;64.58
54666;BME280;40566;50.006;36.180;2023-01-30T06:07:54;99592.22;;;-3.52;64.63
54666;BME280;40566;50.006;36.180;2023-01-30T06:12:54;99590.72;;;-3.46;64.46
54666;BME280;40566;50.006;36.180;2023-01-30T06:17:55;99601.13;;;-3.35;64.49
54666;BME280;40566;50.006;36.180;2023-01-30T06:22:55;99600.28;;;-3.35;64.62
54666;BME280;40566;50.006;36.180;2023-01-30T06:27:56;99592.78;;;-3.31;64.74
54666;BME280;40566;50.006;36.180;2023-01-30T06:32:56;99599.53;;;-3.31;64.88
54666;BME280;40566;50.006;36.180;2023-01-30T06:37:57;99595.28;;;-3.32;64.80
54666;BME280;40566;50.006;36.180;2023-01-30T06:42:58;99598.50;;;-3.38;65.22
54666;BME280;40566;50.006;36.180;2023-01-30T06:47:58;99594.88;;;-3.14;64.58
54666;BME280;40566;50.006;36.180;2023-01-30T06:53:02;99583.25;;;-3.08;64.49
54666;BME280;40566;50.006;36.180;2023-01-30T06:58:11;99589.41;;;-2.98;64.31
54666;BME280;40566;50.006;36.180;2023-01-30T07:03:13;99585.03;;;-2.67;63.91
54666;BME280;40566;50.006;36.180;2023-01-30T07:08:14;99571.75;;;-2.58;63.78
54666;BME280;40566;50.006;36.180;2023-01-30T07:13:15;99570.19;;;-2.52;63.84
54666;BME280;40566;50.006;36.180;2023-01-30T07:18:16;99568.03;;;-2.35;63.82
54666;BME280;40566;50.006;36.180;2023-01-30T07:23:17;99562.84;;;-2.40;63.80
54666;BME280;40566;50.006;36.180;2023-01-30T07:28:17;99553.47;;;-2.44;63.96
54666;BME280;40566;50.006;36.180;2023-01-30T07:33:18;99561.63;;;-2.17;63.48
54666;BME280;40566;50.006;36.180;2023-01-30T07:38:19;99553.47;;;-2.03;63.22
54666;BME280;40566;50.006;36.180;2023-01-30T07:43:20;99549.47;;;-1.91;63.41
54666;BME280;40566;50.006;36.180;2023-01-30T07:48:21;99547.09;;;-1.84;63.07
54666;BME280;40566;50.006;36.180;2023-01-30T07:53:21;99537.72;;;-1.86;63.44
54666;BME280;40566;50.006;36.180;2023-01-30T07:58:22;99526.72;;;-1.88;63.48
54666;BME280;40566;50.006;36.180;2023-01-30T08:03:22;99527.31;;;-1.56;62.85
54666;BME280;40566;50.006;36.180;2023-01-30T08:08:23;99517.22;;;-1.51;62.76
54666;BME280;40566;50.006;36.180;2023-01-30T08:13:24;99517.13;;;-1.57;63.22
54666;BME280;40566;50.006;36.180;2023-01-30T08:18:24;99508.41;;;-1.72;63.46
54666;BME280;40566;50.006;36.180;2023-01-30T08:23:25;99500.72;;;-1.76;63.63
54666;BME280;40566;50.006;36.180;2023-01-30T08:28:26;99502.88;;;-1.51;63.08
54666;BME280;40566;50.006;36.180;2023-01-30T08:33:27;99492.91;;;-1.40;62.93
54666;BME280;40566;50.006;36.180;2023-01-30T08:38:28;99497.41;;;-1.21;62.63
54666;BME280;40566;50.006;36.180;2023-01-30T08:43:28;99481.66;;;-1.03;62.40
54666;BME280;40566;50.006;36.180;2023-01-30T08:48:29;99463.09;;;-0.98;62.18
54666;BME280;40566;50.006;36.180;2023-01-30T08:53:30;99467.72;;;-0.68;61.86
54666;BME280;40566;50.006;36.180;2023-01-30T08:58:31;99464.25;;;-0.75;62.02
54666;BME280;40566;50.006;36.180;2023-01-30T09:03:32;99463.44;;;-0.72;62.07
54666;BME280;40566;50.006;36.180;2023-01-30T09:08:33;99445.63;;;-0.74;62.36
54666;BME280;40566;50.006;36.180;2023-01-30T09:13:34;99438.88;;;-0.72;62.23
54666;BME280;40566;50.006;36.180;2023-01-30T09:18:40;99435.16;;;-0.97;62.56
54666;BME280;40566;50.006;36.180;2023-01-30T09:23:41;99427.59;;;-0.94;62.63
54666;BME280;40566;50.006;36.180;2023-01-30T09:28:42;99423.53;;;-0.83;62.15
54666;BME280;40566;50.006;36.180;2023-01-30T09:33:43;99418.28;;;-0.93;62.25
54666;BME280;40566;50.006;36.180;2023-01-30T09:38:44;99409.88;;;-0.91;62.24
54666;BME280;40566;50.006;36.180;2023-01-30T09:54:29;99370.22;;;-0.83;62.00
54666;BME280;40566;50.006;36.180;2023-01-30T09:59:36;99368.59;;;-0.76;61.70
54666;BME280;40566;50.006;36.180;2023-01-30T10:04:44;99362.66;;;-0.76;61.71
54666;BME280;40566;50.006;36.180;2023-01-30T10:25:25;99333.97;;;-0.68;61.30
54666;BME280;40566;50.006;36.180;2023-01-30T10:30:27;99322.19;;;-0.63;61.35
54666;BME280;40566;50.006;36.180;2023-01-30T10:35:35;99322.28;;;-0.50;61.07
54666;BME280;40566;50.006;36.180;2023-01-30T10:40:54;99305.22;;;-0.67;61.30
54666;BME280;40566;50.006;36.180;2023-01-30T10:56:32;99291.47;;;-0.84;61.33
54666;BME280;40566;50.006;36.180;2023-01-30T11:02:01;99292.31;;;-0.84;61.55
54666;BME280;40566;50.006;36.180;2023-01-30T11:07:06;99289.88;;;-0.74;61.30
54666;BME280;40566;50.006;36.180;2023-01-30T11:12:07;99277.91;;;-0.88;61.64
54666;BME280;40566;50.006;36.180;2023-01-30T11:17:15;99272.72;;;-0.97;61.64
54666;BME280;40566;50.006;36.180;2023-01-30T11:22:16;99272.81;;;-0.88;61.40
54666;BME280;40566;50.006;36.180;2023-01-30T11:27:24;99255.84;;;-0.92;61.40
54666;BME280;40566;50.006;36.180;2023-01-30T11:32:27;99255.72;;;-1.04;61.63
54666;BME280;40566;50.006;36.180;2023-01-30T11:37:38;99257.47;;;-0.97;61.53
54666;BME280;40566;50.006;36.180;2023-01-30T11:42:47;99255.88;;;-0.87;61.25
54666;BME280;40566;50.006;36.180;2023-01-30T11:48:00;99257.41;;;-1.06;61.56
54666;BME280;40566;50.006;36.180;2023-01-30T11:53:32;99248.88;;;-1.10;61.82
54666;BME280;40566;50.006;36.180;2023-01-30T11:58:33;99239.72;;;-0.98;61.65
54666;BME280;40566;50.006;36.180;2023-01-30T12:03:43;99232.03;;;-1.05;61.60
54666;BME280;40566;50.006;36.180;2023-01-30T12:08:44;99232.06;;;-1.00;61.65
54666;BME280;40566;50.006;36.180;2023-01-30T12:13:45;99226.00;;;-1.13;61.98
54666;BME280;40566;50.006;36.180;2023-01-30T12:24:27;99216.69;;;-1.15;61.97
54666;BME280;40566;50.006;36.180;2023-01-30T12:29:40;99213.34;;;-1.11;61.77
54666;BME280;40566;50.006;36.180;2023-01-30T12:34:42;99207.44;;;-1.10;61.93
54666;BME280;40566;50.006;36.180;2023-01-30T13:21:55;99170.19;;;-1.14;62.06
54666;BME280;40566;50.006;36.180;2023-01-30T13:27:00;99176.13;;;-1.12;62.00
54666;BME280;40566;50.006;36.180;2023-01-30T13:32:29;99170.94;;;-1.23;61.98
54666;BME280;40566;50.006;36.180;2023-01-30T13:37:36;99160.75;;;-1.25;62.08
54666;BME280;40566;50.006;36.180;2023-01-30T13:42:56;99161.72;;;-1.16;61.91
54666;BME280;40566;50.006;36.180;2023-01-30T13:59:36;99147.09;;;-1.37;62.47
54666;BME280;40566;50.006;36.180;2023-01-30T14:09:44;99140.16;;;-1.52;62.49
54666;BME280;40566;50.006;36.180;2023-01-30T14:14:58;99129.91;;;-1.63;62.56
54666;BME280;40566;50.006;36.180;2023-01-30T14:20:19;99129.06;;;-1.65;62.54
54666;BME280;40566;50.006;36.180;2023-01-30T14:30:51;99130.44;;;-1.90;63.00
54666;BME280;40566;50.006;36.180;2023-01-30T14:46:06;99129.56;;;-1.95;63.00
54666;BME280;40566;50.006;36.180;2023-01-30T15:07:06;99115.53;;;-1.64;62.32
54666;BME280;40566;50.006;36.180;2023-01-30T15:34:18;99113.78;;;-1.71;62.54
54666;BME280;40566;50.006;36.180;2023-01-30T15:39:20;99113.81;;;-1.67;62.78
54666;BME280;40566;50.006;36.180;2023-01-30T15:44:38;99112.09;;;-1.69;62.83
54666;BME280;40566;50.006;36.180;2023-01-30T15:50:01;99115.53;;;-1.64;62.63
54666;BME280;40566;50.006;36.180;2023-01-30T15:55:02;99120.66;;;-1.58;62.67
54666;BME280;40566;50.006;36.180;2023-01-30T16:00:06;99119.78;;;-1.60;62.69
54666;BME280;40566;50.006;36.180;2023-01-30T16:10:19;99114.06;;;-1.45;62.61
54666;BME280;40566;50.006;36.180;2023-01-30T16:15:38;99117.34;;;-1.55;62.79
54666;BME280;40566;50.006;36.180;2023-01-30T16:20:47;99117.28;;;-1.58;62.87
54666;BME280;40566;50.006;36.180;2023-01-30T16:25:48;99118.09;;;-1.63;63.14
54666;BME280;40566;50.006;36.180;2023-01-30T16:31:02;99118.06;;;-1.64;63.12
54666;BME280;40566;50.006;36.180;2023-01-30T16:46:47;99098.56;;;-1.71;63.21
54666;BME280;40566;50.006;36.180;2023-01-30T16:51:49;99098.59;;;-1.70;63.22
54666;BME280;40566;50.006;36.180;2023-01-30T16:57:00;99089.16;;;-1.80;63.48
54666;BME280;40566;50.006;36.180;2023-01-30T17:02:03;99080.66;;;-1.85;63.58
54666;BME280;40566;50.006;36.180;2023-01-30T17:07:04;99079.78;;;-1.86;63.50
54666;BME280;40566;50.006;36.180;2023-01-30T17:17:30;99079.81;;;-1.84;63.47
54666;BME280;40566;50.006;36.180;2023-01-30T17:22:31;99065.47;;;-1.84;63.32
54666;BME280;40566;50.006;36.180;2023-01-30T17:27:32;99063.00;;;-1.79;63.52
54666;BME280;40566;50.006;36.180;2023-01-30T17:32:33;99065.47;;;-1.85;63.70
54666;BME280;40566;50.006;36.180;2023-01-30T17:37:34;99059.59;;;-1.78;63.54
54666;BME280;40566;50.006;36.180;2023-01-30T17:42:34;99045.19;;;-1.82;63.42
54666;BME280;40566;50.006;36.180;2023-01-30T17:47:35;99050.19;;;-1.90;63.75
54666;BME280;40566;50.006;36.180;2023-01-30T17:52:35;99046.78;;;-1.93;64.05
54666;BME280;40566;50.006;36.180;2023-01-30T17:57:36;99035.78;;;-1.94;63.98
54666;BME280;40566;50.006;36.180;2023-01-30T18:02:37;99040.88;;;-1.92;64.10
54666;BME280;40566;50.006;36.180;2023-01-30T18:07:38;99038.34;;;-1.92;64.03
54666;BME280;40566;50.006;36.180;2023-01-30T18:12:39;99040.03;;;-1.93;64.18
54666;BME280;40566;50.006;36.180;2023-01-30T18:17:44;99035.00;;;-1.88;64.13
54666;BME280;40566;50.006;36.180;2023-01-30T18:22:45;99038.41;;;-1.86;64.14
54666;BME280;40566;50.006;36.180;2023-01-30T18:27:46;99037.59;;;-1.85;64.14
54666;BME280;40566;50.006;36.180;2023-01-30T18:32:47;99039.19;;;-1.93;64.48
54666;BME280;40566;50.006;36.180;2023-01-30T18:37:48;99038.31;;;-1.95;64.75
54666;BME280;40566;50.006;36.180;2023-01-30T18:42:49;99027.31;;;-1.96;64.67
54666;BME280;40566;50.006;36.180;2023-01-30T18:47:50;99028.06;;;-2.05;65.05
54666;BME280;40566;50.006;36.180;2023-01-30T18:52:51;99035.69;;;-2.03;65.12
54666;BME280;40566;50.006;36.180;2023-01-30T18:57:53;99032.31;;;-2.02;65.06
54666;BME280;40566;50.006;36.180;2023-01-30T19:02:54;99025.59;;;-2.00;65.25
54666;BME280;40566;50.006;36.180;2023-01-30T19:07:55;99039.16;;;-1.96;65.21
54666;BME280;40566;50.006;36.180;2023-01-30T19:12:55;99023.97;;;-1.92;65.09
54666;BME280;40566;50.006;36.180;2023-01-30T19:18:14;99024.75;;;-1.99;65.46
54666;BME280;40566;50.006;36.180;2023-01-30T19:23:15;99019.66;;;-2.01;65.37
54666;BME280;40566;50.006;36.180;2023-01-30T19:28:16;99024.84;;;-1.91;65.37
54666;BME280;40566;50.006;36.180;2023-01-30T19:33:17;99019.78;;;-1.91;65.47
54666;BME280;40566;50.006;36.180;2023-01-30T19:38:17;99006.97;;;-2.04;65.73
54666;BME280;40566;50.006;36.180;2023-01-30T19:43:18;99007.81;;;-2.02;65.71
54666;BME280;40566;50.006;36.180;2023-01-30T19:48:18;99018.78;;;-2.04;65.88
54666;BME280;40566;50.006;36.180;2023-01-30T19:53:19;99006.91;;;-2.08;65.88
54666;BME280;40566;50.006;36.180;2023-01-30T19:58:19;99017.94;;;-2.05;65.70
54666;BME280;40566;50.006;36.180;2023-01-30T20:03:20;99010.44;;;-1.97;65.48
54666;BME280;40566;50.006;36.180;2023-01-30T20:08:21;99012.97;;;-1.95;65.40
54666;BME280;40566;50.006;36.180;2023-01-30T20:13:21;99012.09;;;-1.99;65.35
54666;BME280;40566;50.006;36.180;2023-01-30T20:18:22;99010.31;;;-2.06;65.49
54666;BME280;40566;50.006;36.180;2023-01-30T20:23:23;99022.22;;;-2.01;65.42
54666;BME280;40566;50.006;36.180;2023-01-30T20:28:23;99014.66;;;-1.94;65.22
54666;BME280;40566;50.006;36.180;2023-01-30T20:33:24;99006.19;;;-1.96;65.21
54666;BME280;40566;50.006;36.180;2023-01-30T20:38:25;99003.75;;;-1.86;65.05
54666;BME280;40566;50.006;36.180;2023-01-30T20:43:29;99010.50;;;-1.88;64.95
54666;BME280;40566;50.006;36.180;2023-01-30T20:48:30;99007.94;;;-1.91;65.28
54666;BME280;40566;50.006;36.180;2023-01-30T20:53:32;98996.13;;;-1.90;65.15
54666;BME280;40566;50.006;36.180;2023-01-30T20:58:32;98998.66;;;-1.90;65.07
54666;BME280;40566;50.006;36.180;2023-01-30T21:03:33;99002.84;;;-1.92;65.19
54666;BME280;40566;50.006;36.180;2023-01-30T21:08:37;98996.97;;;-1.88;65.12
54666;BME280;40566;50.006;36.180;2023-01-30T21:13:38;98996.28;;;-1.75;64.97
54666;BME280;40566;50.006;36.180;2023-01-30T21:18:40;98993.78;;;-1.70;64.92
54666;BME280;40566;50.006;36.180;2023-01-30T21:23:41;98990.44;;;-1.66;64.60
54666;BME280;40566;50.006;36.180;2023-01-30T21:28:42;98985.28;;;-1.74;64.93
54666;BME280;40566;50.006;36.180;2023-01-30T21:33:43;98993.75;;;-1.75;64.93
54666;BME280;40566;50.006;36.180;2023-01-30T21:38:44;98994.66;;;-1.70;64.78
54666;BME280;40566;50.006;36.180;2023-01-30T21:44:04;98988.78;;;-1.66;64.70
54666;BME280;40566;50.006;36.180;2023-01-30T21:49:05;98991.22;;;-1.72;64.96
54666;BME280;40566;50.006;36.180;2023-01-30T21:54:05;98992.06;;;-1.73;64.86
54666;BME280;40566;50.006;36.180;2023-01-30T21:59:06;98975.94;;;-1.81;65.18
54666;BME280;40566;50.006;36.180;2023-01-30T22:04:12;98982.63;;;-1.86;65.16
54666;BME280;40566;50.006;36.180;2023-01-30T22:09:14;98981.09;;;-1.73;65.10
54666;BME280;40566;50.006;36.180;2023-01-30T22:14:15;98981.97;;;-1.70;64.95
54666;BME280;40566;50.006;36.180;2023-01-30T22:19:15;98982.84;;;-1.68;64.79
54666;BME280;40566;50.006;36.180;2023-01-30T22:24:16;98972.69;;;-1.68;64.87
54666;BME280;40566;50.006;36.180;2023-01-30T22:29:17;98980.25;;;-1.71;65.08
54666;BME280;40566;50.006;36.180;2023-01-30T22:34:17;98980.22;;;-1.75;65.15
54666;BME280;40566;50.006;36.180;2023-01-30T22:39:18;98970.94;;;-1.72;65.07
54666;BME280;40566;50.006;36.180;2023-01-30T22:44:18;98967.66;;;-1.63;64.78
54666;BME280;40566;50.006;36.180;2023-01-30T22:49:19;98966.81;;;-1.61;64.85
54666;BME280;40566;50.006;36.180;2023-01-30T22:54:19;98960.94;;;-1.60;64.79
54666;BME280;40566;50.006;36.180;2023-01-30T22:59:20;98967.59;;;-1.69;65.08
54666;BME280;40566;50.006;36.180;2023-01-30T23:04:22;98967.53;;;-1.77;65.27
54666;BME280;40566;50.006;36.180;2023-01-30T23:09:24;98960.69;;;-1.84;65.38
54666;BME280;40566;50.006;36.180;2023-01-30T23:14:24;98983.41;;;-1.95;65.53
54666;BME280;40566;50.006;36.180;2023-01-30T23:19:25;98958.09;;;-1.92;65.37
54666;BME280;40566;50.006;36.180;2023-01-30T23:24:26;98961.56;;;-1.84;65.24
54666;BME280;40566;50.006;36.180;2023-01-30T23:29:26;98964.13;;;-1.81;65.08
54666;BME280;40566;50.006;36.180;2023-01-30T23:34:27;98955.69;;;-1.78;65.04
54666;BME280;40566;50.006;36.180;2023-01-30T23:39:27;98957.28;;;-1.86;65.06
54666;BME280;40566;50.006;36.180;2023-01-30T23:44:28;98964.91;;;-1.85;65.12
54666;BME280;40566;50.006;36.180;2023-01-30T23:49:29;98958.13;;;-1.86;64.97
54666;BME280;40566;50.006;36.180;2023-01-30T23:54:29;98958.13;;;-1.86;65.12
54666;BME280;40566;50.006;36.180;2023-01-30T23:59:30;98955.69;;;-1.80;65.02
